Terminal Aerodrome Forecast
Issued by NWS Northern Indiana

Home | Current Version | Previous Version | Graphics & Text | Print | Product List | Glossary On
Versions: 1 2 3 4 5 6 7 8 9 10 11 12 13
000
FTUS43 KIWX 011100
TAFFWA
TAF
KFWA 011120Z 0112/0212 05012KT P6SM OVC020
     FM011700 05010KT P6SM BKN030
     FM012200 06008KT P6SM BKN050
     FM020400 03005KT P6SM BKN250=

USA.gov is the U.S. government's official web portal to all federal, state and local government web resources and services.